createdAt,value
2022-08-28T00:00:43.130Z,25.61
2022-08-28T00:03:13.876Z,25.64
2022-08-28T00:05:46.501Z,25.21
2022-08-28T00:08:17.731Z,25.08
2022-08-28T00:10:46.171Z,25.09
2022-08-28T00:13:20.548Z,24.96
2022-08-28T00:15:51.419Z,24.81
2022-08-28T00:18:20.732Z,25.15
2022-08-28T00:20:50.916Z,24.96
2022-08-28T00:23:20.444Z,24.70
2022-08-28T00:25:49.336Z,24.67
2022-08-28T00:28:23.712Z,24.84
2022-08-28T00:30:55.634Z,24.47
2022-08-28T00:33:28.627Z,24.35
2022-08-28T00:35:58.410Z,24.12
2022-08-28T00:38:28.418Z,23.98
2022-08-28T00:40:59.620Z,24.01
2022-08-28T00:43:36.244Z,23.90
2022-08-28T00:46:09.243Z,23.90
2022-08-28T00:48:38.636Z,23.89
2022-08-28T00:51:25.632Z,23.79
2022-08-28T00:53:58.745Z,23.87
2022-08-28T00:56:29.303Z,23.76
2022-08-28T00:59:04.800Z,23.54
2022-08-28T01:01:34.030Z,23.55
2022-08-28T01:04:06.210Z,23.81
2022-08-28T01:06:38.726Z,23.82
2022-08-28T01:09:07.421Z,23.75
2022-08-28T01:11:36.488Z,23.81
2022-08-28T01:14:07.047Z,23.88
2022-08-28T01:16:36.593Z,23.64
2022-08-28T01:19:08.080Z,23.73
2022-08-28T01:21:40.520Z,23.65
2022-08-28T01:24:14.771Z,23.81
2022-08-28T01:26:44.172Z,23.79
2022-08-28T01:29:13.346Z,23.78
2022-08-28T01:31:42.917Z,23.71
2022-08-28T01:34:13.669Z,23.84
2022-08-28T01:36:42.804Z,23.86
2022-08-28T01:39:16.442Z,23.90
2022-08-28T01:41:48.859Z,23.70
2022-08-28T01:44:18.344Z,23.39
2022-08-28T01:46:47.831Z,23.72
2022-08-28T01:49:16.589Z,23.61
2022-08-28T01:51:45.211Z,23.57
2022-08-28T01:54:15.948Z,23.23
2022-08-28T01:56:46.401Z,23.08
2022-08-28T01:59:16.156Z,22.94
2022-08-28T02:01:45.460Z,22.87
2022-08-28T02:04:15.359Z,22.76
2022-08-28T02:06:44.123Z,23.04
2022-08-28T02:09:14.589Z,23.08
2022-08-28T02:11:46.302Z,23.06
2022-08-28T02:14:15.790Z,22.98
2022-08-28T02:16:44.780Z,23.24
2022-08-28T02:19:13.464Z,23.59
2022-08-28T02:21:42.088Z,23.26
2022-08-28T02:24:11.151Z,23.27
2022-08-28T02:26:40.273Z,23.43
2022-08-28T02:29:10.297Z,23.50
2022-08-28T02:31:39.410Z,23.67
2022-08-28T02:34:11.100Z,23.60
2022-08-28T02:36:41.710Z,23.95
2022-08-28T02:39:10.548Z,23.61
2022-08-28T02:41:39.293Z,23.55
2022-08-28T02:44:10.877Z,23.66
2022-08-28T02:46:39.518Z,23.80
2022-08-28T02:49:08.450Z,23.57
2022-08-28T02:51:37.117Z,23.48
2022-08-28T02:54:05.860Z,22.90
2022-08-28T02:56:34.863Z,22.92
2022-08-28T02:59:03.937Z,22.88
2022-08-28T03:01:34.441Z,22.80
2022-08-28T03:04:03.755Z,22.81
2022-08-28T03:06:32.642Z,22.79
2022-08-28T03:09:01.321Z,22.86
2022-08-28T03:11:30.231Z,22.94
2022-08-28T03:13:58.875Z,23.00
2022-08-28T03:16:27.488Z,22.88
2022-08-28T03:18:57.900Z,22.58
2022-08-28T03:21:26.679Z,22.49
2022-08-28T03:23:55.390Z,22.71
2022-08-28T03:26:24.453Z,22.63
2022-08-28T03:28:54.628Z,22.70
2022-08-28T03:31:29.167Z,22.80
2022-08-28T03:33:59.147Z,22.86
2022-08-28T03:36:29.602Z,22.40
2022-08-28T03:39:01.836Z,22.79
2022-08-28T03:41:32.367Z,22.89
2022-08-28T03:44:02.196Z,22.94
2022-08-28T03:46:33.464Z,22.87
2022-08-28T03:49:04.119Z,23.11
2022-08-28T03:51:34.266Z,22.98
2022-08-28T03:54:03.580Z,23.19
2022-08-28T03:56:32.801Z,23.07
2022-08-28T03:59:03.436Z,23.16
2022-08-28T04:01:33.552Z,23.40
2022-08-28T04:04:04.677Z,23.49
2022-08-28T04:06:33.728Z,23.45
2022-08-28T04:09:05.160Z,23.60
2022-08-28T04:11:38.504Z,23.58
2022-08-28T04:14:07.422Z,23.46
2022-08-28T04:16:36.789Z,23.53
2022-08-28T04:19:07.012Z,23.51
2022-08-28T04:21:40.152Z,23.53
2022-08-28T04:24:09.751Z,23.50
2022-08-28T04:26:38.830Z,23.31
2022-08-28T04:29:08.195Z,23.66
2022-08-28T04:31:37.274Z,23.67
2022-08-28T04:34:08.731Z,23.75
2022-08-28T04:36:38.064Z,23.88
2022-08-28T04:39:08.758Z,24.00
2022-08-28T04:41:38.815Z,23.72
2022-08-28T04:44:08.350Z,23.70
2022-08-28T04:46:37.683Z,23.70
2022-08-28T04:49:07.761Z,23.85
2022-08-28T04:51:41.391Z,23.95
2022-08-28T04:54:11.780Z,24.07
2022-08-28T04:56:41.416Z,23.98
2022-08-28T04:59:10.394Z,23.79
2022-08-28T05:01:40.973Z,23.81
2022-08-28T05:04:11.994Z,24.15
2022-08-28T05:06:43.421Z,24.34
2022-08-28T05:09:12.319Z,24.30
2022-08-28T05:11:44.871Z,24.41
2022-08-28T05:14:16.224Z,24.44
2022-08-28T05:16:46.805Z,24.63
2022-08-28T05:19:18.151Z,24.56
2022-08-28T05:21:46.605Z,24.67
2022-08-28T05:24:15.372Z,24.65
2022-08-28T05:26:44.247Z,24.88
2022-08-28T05:29:17.868Z,24.89
2022-08-28T05:31:47.450Z,24.86
2022-08-28T05:34:17.953Z,24.97
2022-08-28T05:36:46.843Z,24.97
2022-08-28T05:39:16.388Z,25.64
2022-08-28T05:41:46.577Z,26.13
2022-08-28T05:44:17.687Z,26.70
2022-08-28T05:46:47.777Z,26.87
2022-08-28T05:49:19.900Z,26.56
2022-08-28T05:51:48.973Z,26.57
2022-08-28T05:54:18.233Z,26.03
2022-08-28T05:56:47.082Z,26.05
2022-08-28T05:59:16.807Z,26.05
2022-08-28T06:01:50.692Z,26.18
2022-08-28T06:04:25.651Z,25.86
2022-08-28T06:06:55.106Z,25.85
2022-08-28T06:09:29.408Z,26.07
2022-08-28T06:12:00.137Z,25.86
2022-08-28T06:14:29.786Z,25.70
2022-08-28T06:16:59.687Z,25.87
2022-08-28T06:19:31.484Z,26.15
2022-08-28T06:22:07.371Z,26.26
2022-08-28T06:24:36.974Z,26.32
2022-08-28T06:27:06.381Z,26.38
2022-08-28T06:29:35.116Z,26.38
2022-08-28T06:32:05.571Z,26.71
2022-08-28T06:34:36.044Z,26.58
2022-08-28T06:37:05.073Z,26.69
2022-08-28T06:39:34.143Z,26.97
2022-08-28T06:42:02.924Z,26.79
2022-08-28T06:44:32.426Z,26.72
2022-08-28T06:47:02.082Z,26.72
2022-08-28T06:49:30.731Z,26.88
2022-08-28T06:52:00.692Z,27.37
2022-08-28T06:54:31.129Z,26.77
2022-08-28T06:56:59.767Z,27.19
2022-08-28T06:59:28.589Z,27.12
2022-08-28T07:01:57.683Z,27.59
2022-08-28T07:04:27.715Z,27.54
2022-08-28T07:06:56.352Z,27.56
2022-08-28T07:09:26.646Z,27.76
2022-08-28T07:11:55.265Z,27.87
2022-08-28T07:14:25.769Z,28.00
2022-08-28T07:16:57.045Z,27.97
2022-08-28T07:19:25.749Z,27.97
2022-08-28T07:21:55.412Z,27.93
2022-08-28T07:24:24.400Z,28.22
2022-08-28T07:26:54.393Z,28.26
2022-08-28T07:29:23.199Z,27.93
2022-08-28T07:31:54.001Z,27.63
2022-08-28T07:34:26.941Z,27.79
2022-08-28T07:36:58.248Z,27.89
2022-08-28T07:39:27.016Z,27.65
2022-08-28T07:41:57.924Z,27.64
2022-08-28T07:47:32.093Z,27.65
2022-08-28T07:50:01.584Z,27.75
2022-08-28T07:52:30.563Z,27.75
2022-08-28T07:54:59.246Z,27.34
2022-08-28T07:57:29.697Z,27.76
2022-08-28T07:59:58.699Z,27.83
2022-08-28T08:02:27.752Z,27.80
2022-08-28T08:04:56.810Z,27.91
2022-08-28T08:07:25.447Z,27.53
2022-08-28T08:09:54.076Z,27.80
2022-08-28T08:12:22.997Z,27.74
2022-08-28T08:14:53.250Z,27.95
2022-08-28T08:17:21.897Z,28.18
2022-08-28T08:19:50.784Z,28.26
2022-08-28T08:22:19.964Z,28.36
2022-08-28T08:24:48.599Z,28.53
2022-08-28T08:27:18.258Z,28.73
2022-08-28T08:29:46.867Z,28.82
2022-08-28T08:32:17.299Z,28.91
2022-08-28T08:34:46.757Z,28.93
2022-08-28T08:37:18.850Z,28.93
2022-08-28T08:39:47.757Z,29.13
2022-08-28T08:42:26.203Z,28.64
2022-08-28T08:44:56.454Z,28.96
2022-08-28T08:47:32.616Z,28.99
2022-08-28T08:50:04.077Z,28.75
2022-08-28T08:52:38.757Z,28.77
2022-08-28T08:55:15.256Z,28.64
2022-08-28T08:57:46.197Z,28.76
2022-08-28T09:00:19.073Z,28.44
2022-08-28T09:02:53.035Z,28.71
2022-08-28T09:05:24.297Z,28.97
2022-08-28T09:07:57.643Z,29.04
2022-08-28T09:10:35.502Z,28.90
2022-08-28T09:13:09.397Z,29.14
2022-08-28T09:15:48.673Z,29.33
2022-08-28T09:18:21.590Z,29.16
2022-08-28T09:20:51.654Z,29.13
2022-08-28T09:23:20.709Z,29.14
2022-08-28T09:25:52.559Z,29.23
2022-08-28T09:28:23.492Z,29.20
2022-08-28T09:31:00.285Z,29.18
2022-08-28T09:33:37.454Z,29.37
2022-08-28T09:36:27.946Z,29.38
2022-08-28T09:39:11.714Z,29.19
2022-08-28T09:42:14.969Z,29.07
2022-08-28T09:44:53.067Z,29.48
2022-08-28T09:47:46.255Z,29.21
2022-08-28T09:50:33.562Z,28.94
2022-08-28T09:53:17.777Z,28.85
2022-08-28T09:55:56.847Z,29.69
2022-08-28T09:58:31.716Z,29.66
2022-08-28T10:01:05.197Z,29.74
2022-08-28T10:03:38.700Z,29.84
2022-08-28T10:06:12.848Z,29.91
2022-08-28T10:08:52.174Z,29.94
2022-08-28T10:11:27.963Z,29.68
2022-08-28T10:14:03.890Z,30.13
2022-08-28T10:16:40.375Z,30.04
2022-08-28T10:19:23.834Z,29.67
2022-08-28T10:21:59.291Z,29.65
2022-08-28T10:24:42.144Z,29.85
2022-08-28T10:27:14.857Z,29.73
2022-08-28T10:29:50.857Z,29.83
2022-08-28T10:32:34.637Z,30.38
2022-08-28T10:35:06.911Z,30.41
2022-08-28T10:37:44.829Z,30.57
2022-08-28T10:40:16.526Z,30.26
2022-08-28T10:42:55.364Z,30.25
2022-08-28T10:45:26.357Z,29.74
2022-08-28T10:47:55.814Z,30.32
2022-08-28T10:50:27.326Z,30.67
2022-08-28T10:53:01.200Z,30.61
2022-08-28T10:55:34.850Z,30.65
2022-08-28T10:58:24.565Z,30.53
2022-08-28T11:00:55.341Z,30.57
2022-08-28T11:03:34.473Z,30.83
2022-08-28T11:06:10.111Z,31.12
2022-08-28T11:08:40.762Z,30.59
2022-08-28T11:11:14.841Z,30.81
2022-08-28T11:13:53.998Z,30.90
2022-08-28T11:16:25.569Z,30.88
2022-08-28T11:19:21.711Z,30.71
2022-08-28T11:21:52.940Z,31.29
2022-08-28T11:24:33.122Z,31.52
2022-08-28T11:27:08.461Z,31.79
2022-08-28T11:30:21.927Z,31.75
2022-08-28T11:33:06.725Z,31.72
2022-08-28T11:35:51.006Z,31.55
2022-08-28T11:39:06.448Z,31.35
2022-08-28T11:41:41.283Z,31.42
2022-08-28T11:44:39.828Z,31.65
2022-08-28T11:47:42.068Z,31.74
2022-08-28T11:50:24.695Z,31.70
2022-08-28T11:53:28.734Z,31.99
2022-08-28T11:56:30.482Z,31.89
2022-08-28T11:59:11.063Z,32.20
2022-08-28T12:01:40.355Z,32.27
2022-08-28T12:04:12.411Z,32.29
2022-08-28T12:07:17.582Z,32.20
2022-08-28T12:09:47.326Z,32.38
2022-08-28T12:12:53.465Z,32.43
2022-08-28T12:15:43.848Z,32.31
2022-08-28T12:18:19.965Z,32.03
2022-08-28T12:21:00.772Z,32.16
2022-08-28T12:23:37.168Z,32.28
2022-08-28T12:26:08.735Z,31.87
2022-08-28T12:28:45.057Z,31.95
2022-08-28T12:31:48.072Z,31.98
2022-08-28T12:34:26.402Z,32.10
2022-08-28T12:36:59.634Z,32.18
2022-08-28T12:39:30.562Z,32.14
2022-08-28T12:42:00.039Z,31.70
2022-08-28T12:44:30.338Z,32.01
2022-08-28T12:47:00.432Z,32.15
2022-08-28T12:49:32.951Z,32.25
2022-08-28T12:52:10.571Z,32.24
2022-08-28T12:54:39.442Z,32.09
2022-08-28T12:57:11.050Z,32.29
2022-08-28T12:59:41.572Z,32.58
2022-08-28T13:02:14.405Z,33.03
2022-08-28T13:04:50.254Z,32.50
2022-08-28T13:07:22.095Z,32.97
2022-08-28T13:09:52.688Z,33.01
2022-08-28T13:12:31.986Z,32.79
2022-08-28T13:15:14.589Z,32.75
2022-08-28T13:17:54.963Z,32.60
2022-08-28T13:20:28.064Z,32.84
2022-08-28T13:22:57.134Z,32.77
2022-08-28T13:25:27.728Z,33.17
2022-08-28T13:27:58.520Z,33.43
2022-08-28T13:30:30.368Z,33.39
2022-08-28T13:33:02.539Z,33.26
2022-08-28T13:35:37.907Z,33.02
2022-08-28T13:38:09.663Z,33.30
2022-08-28T13:41:02.885Z,33.20
2022-08-28T13:43:44.499Z,33.27
2022-08-28T13:46:13.642Z,33.53
2022-08-28T13:48:43.683Z,33.44
2022-08-28T13:51:19.296Z,33.51
2022-08-28T13:53:50.177Z,33.53
2022-08-28T13:56:18.842Z,33.52
2022-08-28T13:58:56.792Z,33.39
2022-08-28T14:01:49.810Z,33.05
2022-08-28T14:04:19.226Z,33.17
2022-08-28T14:06:47.833Z,33.18
2022-08-28T14:09:17.815Z,33.53
2022-08-28T14:11:49.673Z,33.92
2022-08-28T14:14:18.124Z,33.93
2022-08-28T14:16:46.828Z,34.20
2022-08-28T14:19:15.808Z,34.22
2022-08-28T14:21:45.852Z,34.41
2022-08-28T14:24:14.575Z,34.10
2022-08-28T14:26:43.694Z,34.27
2022-08-28T14:29:14.021Z,33.86
2022-08-28T14:31:43.994Z,33.75
2022-08-28T14:34:14.726Z,33.80
2022-08-28T14:36:45.821Z,34.01
2022-08-28T14:39:15.077Z,33.97
2022-08-28T14:41:46.487Z,33.86
2022-08-28T14:44:15.180Z,33.90
2022-08-28T14:46:46.459Z,33.53
2022-08-28T14:49:17.068Z,33.70
2022-08-28T14:51:48.823Z,33.71
2022-08-28T14:54:18.776Z,34.12
2022-08-28T14:56:48.252Z,33.74
2022-08-28T14:59:23.861Z,33.84
2022-08-28T15:01:55.251Z,34.02
2022-08-28T15:04:26.109Z,34.25
2022-08-28T15:06:59.384Z,33.90
2022-08-28T15:09:28.554Z,33.33
2022-08-28T15:11:57.922Z,33.28
2022-08-28T15:14:26.853Z,33.10
2022-08-28T15:16:55.505Z,32.91
2022-08-28T15:19:25.433Z,32.38
2022-08-28T15:21:55.558Z,32.40
2022-08-28T15:24:28.039Z,32.36
2022-08-28T15:26:57.024Z,32.32
2022-08-28T15:29:26.561Z,32.41
2022-08-28T15:31:55.468Z,31.64
2022-08-28T15:34:26.271Z,32.13
2022-08-28T15:36:56.386Z,32.01
2022-08-28T15:39:44.824Z,31.81
2022-08-28T15:42:14.013Z,31.65
2022-08-28T15:44:42.747Z,30.76
2022-08-28T15:47:12.612Z,31.08
2022-08-28T15:49:48.867Z,30.94
2022-08-28T15:52:21.289Z,30.93
2022-08-28T15:54:51.554Z,30.84
2022-08-28T15:57:22.607Z,30.74
2022-08-28T15:59:51.554Z,30.81
2022-08-28T16:02:21.495Z,30.89
2022-08-28T16:04:51.473Z,30.43
2022-08-28T16:07:21.732Z,30.22
2022-08-28T16:09:52.331Z,30.10
2022-08-28T16:12:20.991Z,30.07
2022-08-28T16:14:50.463Z,29.76
2022-08-28T16:17:19.105Z,29.89
2022-08-28T16:19:48.959Z,29.96
2022-08-28T16:22:18.347Z,29.99
2022-08-28T16:24:47.425Z,30.06
2022-08-28T16:27:17.659Z,30.05
2022-08-28T16:29:49.583Z,29.98
2022-08-28T16:35:24.737Z,29.92
2022-08-28T16:44:01.293Z,29.99
2022-08-28T16:52:39.245Z,29.74
2022-08-28T16:55:10.422Z,29.68
2022-08-28T16:57:39.624Z,29.66
2022-08-28T17:00:13.488Z,29.74
2022-08-28T17:02:42.697Z,29.69
2022-08-28T17:05:13.230Z,29.23
2022-08-28T17:07:42.115Z,29.48
2022-08-28T17:10:12.234Z,29.60
2022-08-28T17:12:41.646Z,29.39
2022-08-28T17:15:12.607Z,29.18
2022-08-28T17:17:42.372Z,29.16
2022-08-28T17:20:32.564Z,28.86
2022-08-28T17:23:00.861Z,28.72
2022-08-28T17:25:30.421Z,28.58
2022-08-28T17:28:01.038Z,28.61
2022-08-28T17:30:31.316Z,28.53
2022-08-28T17:33:00.401Z,28.83
2022-08-28T17:35:31.840Z,28.81
2022-08-28T17:38:11.033Z,28.67
2022-08-28T17:40:40.390Z,28.71
2022-08-28T17:43:12.402Z,28.84
2022-08-28T17:45:43.024Z,28.71
2022-08-28T17:48:12.068Z,28.90
2022-08-28T17:50:41.384Z,28.77
2022-08-28T17:53:10.202Z,28.72
2022-08-28T17:55:39.081Z,28.70
2022-08-28T17:58:08.598Z,28.74
2022-08-28T18:00:37.851Z,28.62
2022-08-28T18:03:08.950Z,28.54
2022-08-28T18:05:37.894Z,28.57
2022-08-28T18:08:07.157Z,28.65
2022-08-28T18:10:36.692Z,28.71
2022-08-28T18:13:07.215Z,28.60
2022-08-28T18:15:36.986Z,28.45
2022-08-28T18:18:06.349Z,28.61
2022-08-28T18:20:36.693Z,28.59
2022-08-28T18:23:06.095Z,28.22
2022-08-28T18:25:47.309Z,28.39
2022-08-28T18:28:23.479Z,28.67
2022-08-28T18:30:53.794Z,28.37
2022-08-28T18:33:24.591Z,28.35
2022-08-28T18:35:58.748Z,27.97
2022-08-28T18:38:29.015Z,28.15
2022-08-28T18:41:00.066Z,28.37
2022-08-28T18:43:29.429Z,28.17
2022-08-28T18:46:00.381Z,27.97
2022-08-28T18:48:30.143Z,28.09
2022-08-28T18:51:00.511Z,28.00
2022-08-28T18:53:30.116Z,28.11
2022-08-28T18:55:59.155Z,28.02
2022-08-28T18:58:32.464Z,27.91
2022-08-28T19:01:03.623Z,27.86
2022-08-28T19:03:33.038Z,27.76
2022-08-28T19:06:03.509Z,27.71
2022-08-28T19:08:33.203Z,27.45
2022-08-28T19:11:02.146Z,27.50
2022-08-28T19:13:31.164Z,27.35
2022-08-28T19:16:00.562Z,27.01
2022-08-28T19:18:30.003Z,27.29
2022-08-28T19:21:07.573Z,26.89
2022-08-28T19:23:37.255Z,26.96
2022-08-28T19:26:07.091Z,26.80
2022-08-28T19:28:40.689Z,26.76
2022-08-28T19:31:09.804Z,26.56
2022-08-28T19:33:39.643Z,26.72
2022-08-28T19:36:10.775Z,26.76
2022-08-28T19:38:39.760Z,26.64
2022-08-28T19:41:09.146Z,26.65
2022-08-28T19:43:43.343Z,26.72
2022-08-28T19:46:18.367Z,26.64
2022-08-28T19:48:49.115Z,26.86
2022-08-28T19:51:23.417Z,26.75
2022-08-28T19:53:57.825Z,26.83
2022-08-28T19:56:29.236Z,26.48
2022-08-28T19:58:59.932Z,26.45
2022-08-28T20:01:30.806Z,26.50
2022-08-28T20:04:00.570Z,26.35
2022-08-28T20:06:32.431Z,26.23
2022-08-28T20:09:02.961Z,26.13
2022-08-28T20:11:32.082Z,26.33
2022-08-28T20:14:04.892Z,26.08
2022-08-28T20:16:35.559Z,26.06
2022-08-28T20:19:05.025Z,25.80
2022-08-28T20:21:37.073Z,25.68
2022-08-28T20:24:08.581Z,25.53
2022-08-28T20:26:38.853Z,25.45
2022-08-28T20:29:09.061Z,25.60
2022-08-28T20:31:41.046Z,25.40
2022-08-28T20:34:10.693Z,25.55
2022-08-28T20:36:41.129Z,25.47
2022-08-28T20:39:10.754Z,25.68
2022-08-28T20:41:41.163Z,25.62
2022-08-28T20:44:12.691Z,25.61
2022-08-28T20:46:42.495Z,25.57
2022-08-28T20:49:12.170Z,25.55
2022-08-28T20:51:56.972Z,25.51
2022-08-28T20:54:29.124Z,25.53
2022-08-28T20:56:59.502Z,25.48
2022-08-28T20:59:34.453Z,25.35
2022-08-28T21:02:10.491Z,25.50
2022-08-28T21:04:41.086Z,25.39
2022-08-28T21:07:11.642Z,25.39
2022-08-28T21:10:04.919Z,25.31
2022-08-28T21:12:29.237Z,25.47
2022-08-28T21:14:58.750Z,25.13
2022-08-28T21:17:29.412Z,24.97
2022-08-28T21:20:01.175Z,25.04
2022-08-28T21:22:32.046Z,24.86
2022-08-28T21:25:02.362Z,24.95
2022-08-28T21:27:30.998Z,24.65
2022-08-28T21:30:01.028Z,24.83
2022-08-28T21:32:34.125Z,24.64
2022-08-28T21:35:03.264Z,24.65
2022-08-28T21:37:33.688Z,24.52
2022-08-28T21:40:03.137Z,24.75
2022-08-28T21:42:32.194Z,24.67
2022-08-28T21:45:01.639Z,24.69
2022-08-28T21:47:31.438Z,24.57
2022-08-28T21:50:00.741Z,24.38
2022-08-28T21:52:31.379Z,24.48
2022-08-28T21:55:02.063Z,24.52
2022-08-28T21:57:31.133Z,24.22
2022-08-28T22:00:00.261Z,23.90
2022-08-28T22:02:29.385Z,24.17
2022-08-28T22:04:58.362Z,24.10
2022-08-28T22:07:27.000Z,24.10
2022-08-28T22:09:55.625Z,24.11
2022-08-28T22:12:25.966Z,24.12
2022-08-28T22:14:54.754Z,24.19
2022-08-28T22:17:23.438Z,24.40
2022-08-28T22:19:52.343Z,24.31
2022-08-28T22:22:38.492Z,24.26
2022-08-28T22:25:08.927Z,24.31
2022-08-28T22:27:39.080Z,24.40
2022-08-28T22:30:08.932Z,23.90
2022-08-28T22:32:37.551Z,24.02
2022-08-28T22:35:07.190Z,24.05
2022-08-28T22:37:36.078Z,23.84
2022-08-28T22:40:09.416Z,23.85
2022-08-28T22:42:43.795Z,23.86
2022-08-28T22:45:12.980Z,23.70
2022-08-28T22:47:41.865Z,23.47
2022-08-28T22:50:11.413Z,23.46
2022-08-28T22:52:43.187Z,23.76
2022-08-28T22:55:13.250Z,23.58
2022-08-28T22:57:43.363Z,23.46
2022-08-28T23:00:14.667Z,23.52
2022-08-28T23:02:43.233Z,23.52
2022-08-28T23:05:12.475Z,23.49
2022-08-28T23:07:41.619Z,23.60
2022-08-28T23:10:11.466Z,23.39
2022-08-28T23:12:42.876Z,23.48
2022-08-28T23:15:14.832Z,23.41
2022-08-28T23:17:43.906Z,23.57
2022-08-28T23:20:15.900Z,23.32
2022-08-28T23:22:44.764Z,23.32
2022-08-28T23:25:16.543Z,23.11
2022-08-28T23:27:45.870Z,23.38
2022-08-28T23:30:17.435Z,23.15
2022-08-28T23:32:46.841Z,23.09
2022-08-28T23:35:17.310Z,23.02
2022-08-28T23:37:48.864Z,23.03
2022-08-28T23:40:22.980Z,22.98
2022-08-28T23:42:52.671Z,22.80
2022-08-28T23:45:23.414Z,22.76
2022-08-28T23:47:52.556Z,22.80
2022-08-28T23:50:22.754Z,22.77
2022-08-28T23:52:51.889Z,23.04
2022-08-28T23:55:21.490Z,22.89
2022-08-28T23:57:52.405Z,22.87
